Lavaltrie, Canada
Current Conditions -  °F | °C
As of 10:00 PM on Monday 26 Jan 2015 (Local Time) from CYHU Reporting Station
Clear Clear  
Wind Chill: -28°   Ceiling: Unl
Heat Index: -17°   Visibility: 9mi
Dew Point: -22°   Wind: 16mph
Humidity: 66%   Direction: 30°NNE
Pressure: 30.2"   Gusts: NA
Location:  45.88°N, 73.28°W
Report Text: CYHU 270300Z AUTO 03014KT 9SM CLR M17/M22 A3020 RMK SLP230
Loading
Personal Weather Stations






























Interactive Weather Map New forecast layout! Learn more

10-Day Weather Forecast

Advertisements
Track Severe Weather on mobile